EZY61CD EGCC-LFMN
Flight info
| Callsign | EZY61CD |
|---|---|
| Flight time | 1h 56m |
| Altitude | 37000 |
| Route | SANBA N859 HON UL612 VEULE DCT KOTAP UM728 KETEX DCT KOTIS DCT KUKOR DCT UTUVA DCT LERGA DCT LIQID DCT LATAM DCT TUNUR DCT NISAR |
| Aircraft | A320/M-SDE2E3FGHIJ1RWXYZ/LB1 |
Departure
| Time | 2026-05-08 04:21 |
|---|---|
| Airport | Manchester Airport (EGCC) |
Arrival
| Time | 2026-05-08 06:17 |
|---|---|
| Airport | Nice-Côte d'Azur Airport (LFMN) |
| Time | Latitude | Longitude | Altitude | Speed | Heading |
|---|---|---|---|---|---|
| 2026-05-08 03:33 | 53.36441 | -2.27734 | 248 ft | 0 kts | 45° |
| 2026-05-08 03:34 | 53.36442 | -2.27733 | 248 ft | 0 kts | 45° |
| 2026-05-08 04:09 | 53.36433 | -2.27749 | 247 ft | 4 kts | 45° |
| 2026-05-08 04:09 | 53.36413 | -2.27781 | 247 ft | 4 kts | 45° |
| 2026-05-08 04:09 | 53.36397 | -2.27807 | 247 ft | 4 kts | 50° |
| 2026-05-08 04:09 | 53.36388 | -2.27843 | 247 ft | 4 kts | 103° |
| 2026-05-08 04:10 | 53.36400 | -2.27879 | 247 ft | 4 kts | 135° |
| 2026-05-08 04:10 | 53.36418 | -2.27910 | 247 ft | 4 kts | 135° |
| 2026-05-08 04:10 | 53.36437 | -2.27941 | 247 ft | 4 kts | 135° |
| 2026-05-08 04:10 | 53.36452 | -2.27966 | 247 ft | 3 kts | 135° |
| 2026-05-08 04:11 | 53.36455 | -2.27971 | 247 ft | 0 kts | 135° |
| 2026-05-08 04:13 | 53.36452 | -2.27966 | 247 ft | 1 kts | 135° |
| 2026-05-08 04:14 | 53.36441 | -2.27948 | 247 ft | 3 kts | 135° |
| 2026-05-08 04:14 | 53.36412 | -2.27925 | 247 ft | 9 kts | 175° |
| 2026-05-08 04:14 | 53.36357 | -2.27990 | 247 ft | 9 kts | 224° |
| 2026-05-08 04:14 | 53.36313 | -2.28049 | 247 ft | 7 kts | 205° |
| 2026-05-08 04:15 | 53.36270 | -2.28070 | 247 ft | 6 kts | 195° |
| 2026-05-08 04:15 | 53.36234 | -2.28084 | 247 ft | 6 kts | 185° |
| 2026-05-08 04:15 | 53.36177 | -2.28015 | 247 ft | 14 kts | 134° |
| 2026-05-08 04:15 | 53.36103 | -2.27888 | 247 ft | 16 kts | 135° |
| 2026-05-08 04:16 | 53.36004 | -2.27886 | 247 ft | 14 kts | 163° |
| 2026-05-08 04:16 | 53.35911 | -2.27844 | 247 ft | 15 kts | 185° |
| 2026-05-08 04:16 | 53.35832 | -2.27768 | 247 ft | 14 kts | 130° |
| 2026-05-08 04:16 | 53.35759 | -2.27656 | 247 ft | 15 kts | 158° |
| 2026-05-08 04:17 | 53.35664 | -2.27583 | 247 ft | 16 kts | 141° |
| 2026-05-08 04:17 | 53.35585 | -2.27476 | 255 ft | 13 kts | 141° |
| 2026-05-08 04:17 | 53.35503 | -2.27365 | 262 ft | 17 kts | 141° |
| 2026-05-08 04:17 | 53.35404 | -2.27232 | 259 ft | 20 kts | 141° |
| 2026-05-08 04:18 | 53.35276 | -2.27207 | 251 ft | 18 kts | 192° |
| 2026-05-08 04:18 | 53.35197 | -2.27234 | 245 ft | 10 kts | 192° |
| 2026-05-08 04:18 | 53.35152 | -2.27249 | 243 ft | 0 kts | 192° |
| 2026-05-08 04:19 | 53.35130 | -2.27257 | 243 ft | 7 kts | 191° |
| 2026-05-08 04:20 | 53.35058 | -2.27281 | 240 ft | 12 kts | 191° |
| 2026-05-08 04:20 | 53.34995 | -2.27350 | 239 ft | 11 kts | 232° |
| 2026-05-08 04:20 | 53.34931 | -2.27484 | 238 ft | 27 kts | 232° |
| 2026-05-08 04:20 | 53.34657 | -2.28049 | 233 ft | 97 kts | 231° |
| 2026-05-08 04:21 | 53.34106 | -2.29187 | 213 ft | 152 kts | 231° |
| 2026-05-08 04:21 | 53.33375 | -2.30686 | 532 ft | 170 kts | 231° |
| 2026-05-08 04:21 | 53.32637 | -2.32230 | 1250 ft | 169 kts | 231° |
| 2026-05-08 04:21 | 53.31943 | -2.33877 | 1719 ft | 183 kts | 248° |
| 2026-05-08 04:22 | 53.31976 | -2.36077 | 1988 ft | 206 kts | 294° |
| 2026-05-08 04:22 | 53.32725 | -2.38253 | 2302 ft | 226 kts | 294° |
| 2026-05-08 04:22 | 53.33109 | -2.40851 | 2835 ft | 234 kts | 266° |
| 2026-05-08 04:22 | 53.32716 | -2.43502 | 3425 ft | 244 kts | 237° |
| 2026-05-08 04:23 | 53.31510 | -2.45511 | 4131 ft | 250 kts | 208° |
| 2026-05-08 04:23 | 53.29826 | -2.46239 | 4956 ft | 255 kts | 179° |
| 2026-05-08 04:23 | 53.28086 | -2.45597 | 5823 ft | 259 kts | 163° |
| 2026-05-08 04:23 | 53.26414 | -2.44444 | 6690 ft | 262 kts | 153° |
| 2026-05-08 04:24 | 53.24800 | -2.42986 | 7514 ft | 265 kts | 153° |
| 2026-05-08 04:24 | 53.23158 | -2.41525 | 8335 ft | 269 kts | 153° |
| 2026-05-08 04:24 | 53.21492 | -2.40053 | 9092 ft | 273 kts | 154° |
| 2026-05-08 04:24 | 53.19798 | -2.38564 | 9854 ft | 277 kts | 154° |
| 2026-05-08 04:25 | 53.18067 | -2.37048 | 10452 ft | 289 kts | 154° |
| 2026-05-08 04:25 | 53.16213 | -2.35430 | 10698 ft | 312 kts | 154° |
| 2026-05-08 04:25 | 53.14253 | -2.33719 | 11182 ft | 323 kts | 154° |
| 2026-05-08 04:25 | 53.12240 | -2.31956 | 11852 ft | 329 kts | 154° |
| 2026-05-08 04:26 | 53.10205 | -2.30174 | 12547 ft | 333 kts | 154° |
| 2026-05-08 04:26 | 53.08143 | -2.28371 | 13234 ft | 337 kts | 154° |
| 2026-05-08 04:26 | 53.06057 | -2.26551 | 13918 ft | 341 kts | 154° |
| 2026-05-08 04:26 | 53.03943 | -2.24712 | 14607 ft | 344 kts | 154° |
| 2026-05-08 04:27 | 53.01815 | -2.22861 | 15264 ft | 346 kts | 155° |
| 2026-05-08 04:27 | 52.99666 | -2.20992 | 15885 ft | 349 kts | 155° |
| 2026-05-08 04:27 | 52.97504 | -2.19116 | 16503 ft | 352 kts | 155° |
| 2026-05-08 04:27 | 52.95325 | -2.17228 | 17105 ft | 355 kts | 155° |
| 2026-05-08 04:28 | 52.93123 | -2.15324 | 17685 ft | 358 kts | 155° |
| 2026-05-08 04:28 | 52.90906 | -2.13410 | 18265 ft | 361 kts | 155° |
| 2026-05-08 04:28 | 52.88669 | -2.11483 | 18829 ft | 364 kts | 155° |
| 2026-05-08 04:28 | 52.86455 | -2.09411 | 19364 ft | 369 kts | 146° |
| 2026-05-08 04:29 | 52.84567 | -2.06481 | 19882 ft | 375 kts | 136° |
| 2026-05-08 04:29 | 52.82776 | -2.03315 | 20375 ft | 378 kts | 135° |
| 2026-05-08 04:29 | 52.80982 | -2.00120 | 20874 ft | 381 kts | 135° |
| 2026-05-08 04:29 | 52.79173 | -1.96898 | 21360 ft | 384 kts | 135° |
| 2026-05-08 04:30 | 52.77351 | -1.93644 | 21809 ft | 387 kts | 136° |
| 2026-05-08 04:30 | 52.75346 | -1.90697 | 22247 ft | 386 kts | 147° |
| 2026-05-08 04:30 | 52.73138 | -1.88179 | 22698 ft | 388 kts | 148° |
| 2026-05-08 04:30 | 52.70893 | -1.85668 | 23132 ft | 390 kts | 148° |
| 2026-05-08 04:31 | 52.68634 | -1.83148 | 23548 ft | 393 kts | 148° |
| 2026-05-08 04:31 | 52.66363 | -1.80621 | 23962 ft | 395 kts | 148° |
| 2026-05-08 04:31 | 52.64073 | -1.78078 | 24371 ft | 398 kts | 148° |
| 2026-05-08 04:31 | 52.61768 | -1.75521 | 24781 ft | 400 kts | 148° |
| 2026-05-08 04:32 | 52.59447 | -1.72951 | 25157 ft | 402 kts | 148° |
| 2026-05-08 04:32 | 52.57122 | -1.70369 | 25529 ft | 404 kts | 148° |
| 2026-05-08 04:32 | 52.54780 | -1.67779 | 25892 ft | 406 kts | 148° |
| 2026-05-08 04:32 | 52.52415 | -1.65172 | 26263 ft | 409 kts | 149° |
| 2026-05-08 04:33 | 52.50044 | -1.62554 | 26619 ft | 411 kts | 148° |
| 2026-05-08 04:33 | 52.47671 | -1.59935 | 26965 ft | 413 kts | 148° |
| 2026-05-08 04:33 | 52.45309 | -1.57330 | 27304 ft | 415 kts | 149° |
| 2026-05-08 04:33 | 52.42883 | -1.54648 | 27656 ft | 416 kts | 149° |
| 2026-05-08 04:34 | 52.40502 | -1.52018 | 27976 ft | 418 kts | 148° |
| 2026-05-08 04:34 | 52.38082 | -1.49350 | 28306 ft | 420 kts | 149° |
| 2026-05-08 04:34 | 52.35655 | -1.46669 | 28633 ft | 422 kts | 149° |
| 2026-05-08 04:34 | 52.33215 | -1.43996 | 28943 ft | 423 kts | 151° |
| 2026-05-08 04:35 | 52.30638 | -1.41679 | 29236 ft | 423 kts | 155° |
| 2026-05-08 04:35 | 52.28011 | -1.39444 | 29533 ft | 425 kts | 155° |
| 2026-05-08 04:35 | 52.25374 | -1.37242 | 29819 ft | 426 kts | 156° |
| 2026-05-08 04:35 | 52.22729 | -1.35047 | 30113 ft | 428 kts | 156° |
| 2026-05-08 04:36 | 52.20070 | -1.32842 | 30381 ft | 429 kts | 155° |
| 2026-05-08 04:36 | 52.17403 | -1.30624 | 30623 ft | 431 kts | 155° |
| 2026-05-08 04:36 | 52.14723 | -1.28392 | 30862 ft | 433 kts | 155° |
| 2026-05-08 04:36 | 52.12032 | -1.26144 | 31097 ft | 435 kts | 155° |
| 2026-05-08 04:37 | 52.09333 | -1.23887 | 31354 ft | 436 kts | 155° |
| 2026-05-08 04:37 | 52.06631 | -1.21628 | 31693 ft | 436 kts | 155° |
| 2026-05-08 04:37 | 52.03941 | -1.19382 | 32016 ft | 435 kts | 155° |
| 2026-05-08 04:37 | 52.01243 | -1.17135 | 32324 ft | 434 kts | 155° |
| 2026-05-08 04:38 | 51.98558 | -1.14902 | 32616 ft | 434 kts | 155° |
| 2026-05-08 04:38 | 51.95900 | -1.12701 | 32921 ft | 434 kts | 155° |
| 2026-05-08 04:38 | 51.93210 | -1.10477 | 33194 ft | 434 kts | 155° |
| 2026-05-08 04:38 | 51.90510 | -1.08243 | 33472 ft | 435 kts | 155° |
| 2026-05-08 04:39 | 51.87813 | -1.06015 | 33747 ft | 434 kts | 155° |
| 2026-05-08 04:39 | 51.85125 | -1.03801 | 34033 ft | 434 kts | 155° |
| 2026-05-08 04:39 | 51.82426 | -1.01582 | 34320 ft | 434 kts | 156° |
| 2026-05-08 04:39 | 51.79731 | -0.99374 | 34563 ft | 435 kts | 156° |
| 2026-05-08 04:40 | 51.77034 | -0.97164 | 34813 ft | 435 kts | 156° |
| 2026-05-08 04:40 | 51.75240 | -0.95694 | 34970 ft | 435 kts | 155° |
| 2026-05-08 04:40 | 51.72528 | -0.93469 | 35199 ft | 435 kts | 156° |
| 2026-05-08 04:40 | 51.68943 | -0.90531 | 35485 ft | 436 kts | 156° |
| 2026-05-08 04:41 | 51.67114 | -0.89034 | 35639 ft | 436 kts | 156° |
| 2026-05-08 04:41 | 51.64403 | -0.86821 | 35837 ft | 437 kts | 156° |
| 2026-05-08 04:41 | 51.61720 | -0.84642 | 36032 ft | 437 kts | 156° |
| 2026-05-08 04:41 | 51.58965 | -0.82405 | 36233 ft | 438 kts | 156° |
| 2026-05-08 04:42 | 51.56287 | -0.80234 | 36425 ft | 438 kts | 156° |
| 2026-05-08 04:42 | 51.53561 | -0.78026 | 36595 ft | 439 kts | 156° |
| 2026-05-08 04:42 | 51.50835 | -0.75816 | 36790 ft | 438 kts | 156° |
| 2026-05-08 04:42 | 51.48114 | -0.73611 | 37002 ft | 438 kts | 156° |
| 2026-05-08 04:43 | 51.42713 | -0.69251 | 37072 ft | 432 kts | 156° |
| 2026-05-08 04:43 | 51.37351 | -0.64928 | 37063 ft | 430 kts | 156° |
| 2026-05-08 04:44 | 51.32001 | -0.60634 | 37063 ft | 430 kts | 156° |
| 2026-05-08 04:44 | 51.26654 | -0.56359 | 37063 ft | 430 kts | 156° |
| 2026-05-08 04:45 | 51.21300 | -0.52089 | 37059 ft | 430 kts | 156° |
| 2026-05-08 04:45 | 51.15931 | -0.47813 | 37063 ft | 430 kts | 156° |
| 2026-05-08 04:46 | 51.10578 | -0.43547 | 37068 ft | 431 kts | 156° |
| 2026-05-08 04:46 | 51.05250 | -0.39317 | 37071 ft | 431 kts | 156° |
| 2026-05-08 04:47 | 51.00047 | -0.35209 | 37077 ft | 431 kts | 156° |
| 2026-05-08 04:47 | 50.94682 | -0.30984 | 37085 ft | 431 kts | 156° |
| 2026-05-08 04:48 | 50.89286 | -0.26729 | 37085 ft | 431 kts | 156° |
| 2026-05-08 04:48 | 50.83901 | -0.22495 | 37094 ft | 431 kts | 156° |
| 2026-05-08 04:49 | 50.78529 | -0.18285 | 37083 ft | 431 kts | 156° |
| 2026-05-08 04:49 | 50.73146 | -0.14089 | 37101 ft | 431 kts | 156° |
| 2026-05-08 04:50 | 50.67779 | -0.09921 | 37098 ft | 431 kts | 156° |
| 2026-05-08 04:50 | 50.62405 | -0.05752 | 37084 ft | 430 kts | 156° |
| 2026-05-08 04:51 | 50.57028 | -0.01593 | 37083 ft | 430 kts | 156° |
| 2026-05-08 04:51 | 50.51687 | 0.02533 | 37080 ft | 430 kts | 156° |
| 2026-05-08 04:52 | 50.46312 | 0.06678 | 37087 ft | 430 kts | 156° |
| 2026-05-08 04:52 | 50.40946 | 0.10802 | 37090 ft | 430 kts | 156° |
| 2026-05-08 04:53 | 50.35566 | 0.14938 | 37082 ft | 430 kts | 156° |
| 2026-05-08 04:53 | 50.30189 | 0.19059 | 37084 ft | 429 kts | 157° |
| 2026-05-08 04:54 | 50.24815 | 0.23152 | 37083 ft | 429 kts | 157° |
| 2026-05-08 04:54 | 50.19507 | 0.27423 | 37083 ft | 431 kts | 149° |
| 2026-05-08 04:55 | 50.14497 | 0.32575 | 37083 ft | 431 kts | 149° |
| 2026-05-08 04:55 | 50.09484 | 0.37725 | 37077 ft | 431 kts | 149° |
| 2026-05-08 04:56 | 50.04470 | 0.42866 | 37075 ft | 431 kts | 149° |
| 2026-05-08 04:56 | 49.99457 | 0.47984 | 37072 ft | 431 kts | 149° |
| 2026-05-08 04:57 | 49.94462 | 0.53070 | 37070 ft | 431 kts | 149° |
| 2026-05-08 04:57 | 49.89437 | 0.58167 | 37070 ft | 431 kts | 149° |
| 2026-05-08 04:58 | 49.84425 | 0.63267 | 37068 ft | 432 kts | 149° |
| 2026-05-08 04:58 | 49.79507 | 0.68648 | 37067 ft | 432 kts | 147° |
| 2026-05-08 04:59 | 49.74659 | 0.74161 | 37066 ft | 432 kts | 147° |
| 2026-05-08 04:59 | 49.69775 | 0.79622 | 37067 ft | 433 kts | 147° |
| 2026-05-08 05:00 | 49.64865 | 0.85008 | 37070 ft | 432 kts | 148° |
| 2026-05-08 05:00 | 49.59988 | 0.90337 | 37069 ft | 432 kts | 148° |
| 2026-05-08 05:01 | 49.55078 | 0.95704 | 37068 ft | 432 kts | 147° |
| 2026-05-08 05:01 | 49.50178 | 1.01081 | 37065 ft | 432 kts | 147° |
| 2026-05-08 05:02 | 49.45275 | 1.06431 | 37060 ft | 432 kts | 148° |
| 2026-05-08 05:02 | 49.40356 | 1.11775 | 37057 ft | 432 kts | 148° |
| 2026-05-08 05:03 | 49.35473 | 1.17057 | 37060 ft | 432 kts | 148° |
| 2026-05-08 05:03 | 49.30563 | 1.22358 | 37059 ft | 432 kts | 148° |
| 2026-05-08 05:04 | 49.25643 | 1.27668 | 37059 ft | 432 kts | 148° |
| 2026-05-08 05:04 | 49.20723 | 1.32951 | 37060 ft | 432 kts | 148° |
| 2026-05-08 05:05 | 49.15801 | 1.38239 | 37064 ft | 432 kts | 148° |
| 2026-05-08 05:05 | 49.10874 | 1.43525 | 37063 ft | 432 kts | 148° |
| 2026-05-08 05:06 | 49.05945 | 1.48794 | 37063 ft | 432 kts | 148° |
| 2026-05-08 05:06 | 49.01048 | 1.54014 | 37064 ft | 432 kts | 148° |
| 2026-05-08 05:07 | 48.96114 | 1.59246 | 37064 ft | 432 kts | 148° |
| 2026-05-08 05:07 | 48.91177 | 1.64465 | 37064 ft | 432 kts | 148° |
| 2026-05-08 05:08 | 48.86232 | 1.69689 | 37062 ft | 432 kts | 148° |
| 2026-05-08 05:08 | 48.81330 | 1.74875 | 37063 ft | 432 kts | 148° |
| 2026-05-08 05:09 | 48.76396 | 1.80072 | 37064 ft | 432 kts | 148° |
| 2026-05-08 05:09 | 48.71463 | 1.85252 | 37062 ft | 431 kts | 148° |
| 2026-05-08 05:10 | 48.64053 | 1.93005 | 37065 ft | 431 kts | 148° |
| 2026-05-08 05:11 | 48.59116 | 1.98156 | 37064 ft | 431 kts | 148° |
| 2026-05-08 05:11 | 48.54174 | 2.03297 | 37066 ft | 431 kts | 148° |
| 2026-05-08 05:12 | 48.49241 | 2.08425 | 37065 ft | 431 kts | 148° |
| 2026-05-08 05:12 | 48.44308 | 2.13538 | 37064 ft | 430 kts | 149° |
| 2026-05-08 05:13 | 48.39361 | 2.18637 | 37065 ft | 431 kts | 149° |
| 2026-05-08 05:13 | 48.34419 | 2.23733 | 37064 ft | 430 kts | 149° |
| 2026-05-08 05:14 | 48.29443 | 2.28698 | 37061 ft | 427 kts | 155° |
| 2026-05-08 05:14 | 48.23932 | 2.31757 | 37059 ft | 421 kts | 168° |
| 2026-05-08 05:15 | 48.18258 | 2.34004 | 37055 ft | 422 kts | 168° |
| 2026-05-08 05:15 | 48.12585 | 2.36285 | 37062 ft | 423 kts | 167° |
| 2026-05-08 05:16 | 48.06968 | 2.38938 | 37054 ft | 423 kts | 164° |
| 2026-05-08 05:16 | 48.01402 | 2.41838 | 37057 ft | 424 kts | 164° |
| 2026-05-08 05:17 | 47.95864 | 2.44680 | 37055 ft | 423 kts | 164° |
| 2026-05-08 05:17 | 47.90276 | 2.47462 | 37055 ft | 423 kts | 165° |
| 2026-05-08 05:18 | 47.84693 | 2.50209 | 37056 ft | 422 kts | 165° |
| 2026-05-08 05:18 | 47.79103 | 2.52941 | 37051 ft | 423 kts | 165° |
| 2026-05-08 05:19 | 47.73513 | 2.55679 | 37054 ft | 423 kts | 165° |
| 2026-05-08 05:19 | 47.67914 | 2.58435 | 37052 ft | 423 kts | 165° |
| 2026-05-08 05:20 | 47.62324 | 2.61180 | 37049 ft | 423 kts | 165° |
| 2026-05-08 05:20 | 47.56728 | 2.63909 | 37050 ft | 423 kts | 165° |
| 2026-05-08 05:21 | 47.51130 | 2.66631 | 37049 ft | 423 kts | 165° |
| 2026-05-08 05:21 | 47.46488 | 2.68891 | 37046 ft | 423 kts | 165° |
| 2026-05-08 05:22 | 47.40891 | 2.71607 | 37048 ft | 423 kts | 165° |
| 2026-05-08 05:22 | 47.35300 | 2.74319 | 37042 ft | 423 kts | 165° |
| 2026-05-08 05:23 | 47.29709 | 2.77015 | 37039 ft | 423 kts | 165° |
| 2026-05-08 05:23 | 47.24104 | 2.79715 | 37035 ft | 423 kts | 165° |
| 2026-05-08 05:24 | 47.18499 | 2.82416 | 37039 ft | 424 kts | 165° |
| 2026-05-08 05:24 | 47.12922 | 2.85093 | 37044 ft | 424 kts | 165° |
| 2026-05-08 05:25 | 47.07315 | 2.87783 | 37044 ft | 424 kts | 165° |
| 2026-05-08 05:25 | 47.01700 | 2.90467 | 37037 ft | 424 kts | 165° |
| 2026-05-08 05:26 | 46.96086 | 2.93144 | 37039 ft | 424 kts | 165° |
| 2026-05-08 05:26 | 46.90470 | 2.95815 | 37037 ft | 424 kts | 165° |
| 2026-05-08 05:27 | 46.84862 | 2.98463 | 37032 ft | 423 kts | 165° |
| 2026-05-08 05:27 | 46.79260 | 3.01105 | 37034 ft | 423 kts | 165° |
| 2026-05-08 05:28 | 46.73661 | 3.03758 | 37028 ft | 423 kts | 165° |
| 2026-05-08 05:28 | 46.68059 | 3.06407 | 37028 ft | 423 kts | 165° |
| 2026-05-08 05:29 | 46.62449 | 3.09048 | 37028 ft | 424 kts | 165° |
| 2026-05-08 05:29 | 46.56831 | 3.11685 | 37026 ft | 424 kts | 165° |
| 2026-05-08 05:30 | 46.51232 | 3.14383 | 37027 ft | 424 kts | 164° |
| 2026-05-08 05:30 | 46.45687 | 3.17380 | 37029 ft | 425 kts | 162° |
| 2026-05-08 05:31 | 46.40158 | 3.20455 | 37035 ft | 425 kts | 163° |
| 2026-05-08 05:31 | 46.34651 | 3.23453 | 37041 ft | 425 kts | 163° |
| 2026-05-08 05:32 | 46.29107 | 3.26424 | 37038 ft | 425 kts | 163° |
| 2026-05-08 05:32 | 46.23561 | 3.29376 | 37044 ft | 424 kts | 163° |
| 2026-05-08 05:33 | 46.18024 | 3.32322 | 37040 ft | 424 kts | 163° |
| 2026-05-08 05:33 | 46.12486 | 3.35270 | 37039 ft | 424 kts | 163° |
| 2026-05-08 05:34 | 46.06944 | 3.38211 | 37035 ft | 424 kts | 163° |
| 2026-05-08 05:34 | 46.01412 | 3.41145 | 37030 ft | 423 kts | 163° |
| 2026-05-08 05:35 | 45.95882 | 3.44065 | 37027 ft | 423 kts | 163° |
| 2026-05-08 05:35 | 45.90347 | 3.46989 | 37030 ft | 423 kts | 163° |
| 2026-05-08 05:36 | 45.84813 | 3.49872 | 37030 ft | 422 kts | 165° |
| 2026-05-08 05:36 | 45.79245 | 3.52344 | 37030 ft | 421 kts | 167° |
| 2026-05-08 05:37 | 45.73621 | 3.54644 | 37029 ft | 421 kts | 168° |
| 2026-05-08 05:37 | 45.67995 | 3.56983 | 37032 ft | 421 kts | 167° |
| 2026-05-08 05:38 | 45.62372 | 3.59396 | 37032 ft | 422 kts | 167° |
| 2026-05-08 05:38 | 45.56759 | 3.61823 | 37029 ft | 421 kts | 167° |
| 2026-05-08 05:39 | 45.51137 | 3.64224 | 37031 ft | 421 kts | 167° |
| 2026-05-08 05:39 | 45.45520 | 3.66620 | 37036 ft | 421 kts | 167° |
| 2026-05-08 05:40 | 45.39909 | 3.69009 | 37027 ft | 421 kts | 167° |
| 2026-05-08 05:40 | 45.34291 | 3.71394 | 37027 ft | 421 kts | 167° |
| 2026-05-08 05:41 | 45.28790 | 3.74106 | 37026 ft | 425 kts | 156° |
| 2026-05-08 05:41 | 45.24057 | 3.79239 | 37021 ft | 436 kts | 135° |
| 2026-05-08 05:42 | 45.20578 | 3.86354 | 37017 ft | 441 kts | 126° |
| 2026-05-08 05:42 | 45.17256 | 3.93685 | 37017 ft | 441 kts | 127° |
| 2026-05-08 05:43 | 45.13924 | 4.00982 | 37014 ft | 441 kts | 127° |
| 2026-05-08 05:43 | 45.10597 | 4.08237 | 37022 ft | 441 kts | 127° |
| 2026-05-08 05:44 | 45.07247 | 4.15524 | 37034 ft | 441 kts | 127° |
| 2026-05-08 05:44 | 45.03893 | 4.22784 | 37034 ft | 440 kts | 130° |
| 2026-05-08 05:45 | 44.99910 | 4.29277 | 37034 ft | 435 kts | 137° |
| 2026-05-08 05:45 | 44.95811 | 4.35580 | 37041 ft | 435 kts | 137° |
| 2026-05-08 05:46 | 44.91709 | 4.41880 | 37046 ft | 435 kts | 137° |
| 2026-05-08 05:46 | 44.87638 | 4.48101 | 37044 ft | 434 kts | 137° |
| 2026-05-08 05:47 | 44.83515 | 4.54407 | 37035 ft | 434 kts | 137° |
| 2026-05-08 05:47 | 44.79452 | 4.60613 | 37032 ft | 434 kts | 137° |
| 2026-05-08 05:48 | 44.75354 | 4.66846 | 37033 ft | 434 kts | 137° |
| 2026-05-08 05:48 | 44.71254 | 4.73069 | 37032 ft | 434 kts | 137° |
| 2026-05-08 05:49 | 44.67152 | 4.79283 | 37035 ft | 434 kts | 137° |
| 2026-05-08 05:49 | 44.63045 | 4.85491 | 36908 ft | 435 kts | 137° |
| 2026-05-08 05:49 | 44.61022 | 4.88651 | 36681 ft | 434 kts | 136° |
| 2026-05-08 05:50 | 44.59039 | 4.91827 | 36422 ft | 433 kts | 136° |
| 2026-05-08 05:50 | 44.57073 | 4.95018 | 36008 ft | 430 kts | 135° |
| 2026-05-08 05:50 | 44.55125 | 4.98186 | 35490 ft | 428 kts | 136° |
| 2026-05-08 05:50 | 44.53169 | 5.01340 | 34981 ft | 425 kts | 136° |
| 2026-05-08 05:51 | 44.51232 | 5.04435 | 34466 ft | 422 kts | 137° |
| 2026-05-08 05:51 | 44.49302 | 5.07512 | 33962 ft | 419 kts | 137° |
| 2026-05-08 05:51 | 44.47388 | 5.10558 | 33658 ft | 414 kts | 137° |
| 2026-05-08 05:51 | 44.45490 | 5.13570 | 33359 ft | 411 kts | 137° |
| 2026-05-08 05:52 | 44.43599 | 5.16566 | 33053 ft | 409 kts | 137° |
| 2026-05-08 05:52 | 44.41726 | 5.19527 | 32743 ft | 406 kts | 137° |
| 2026-05-08 05:52 | 44.39858 | 5.22484 | 32439 ft | 403 kts | 137° |
| 2026-05-08 05:52 | 44.37999 | 5.25411 | 32140 ft | 400 kts | 139° |
| 2026-05-08 05:53 | 44.35972 | 5.28004 | 31769 ft | 393 kts | 147° |
| 2026-05-08 05:53 | 44.33830 | 5.30346 | 31293 ft | 389 kts | 148° |
| 2026-05-08 05:53 | 44.31699 | 5.32661 | 30858 ft | 386 kts | 148° |
| 2026-05-08 05:53 | 44.29593 | 5.34951 | 30438 ft | 382 kts | 147° |
| 2026-05-08 05:54 | 44.27526 | 5.37201 | 30026 ft | 380 kts | 147° |
| 2026-05-08 05:54 | 44.25424 | 5.39487 | 29561 ft | 377 kts | 147° |
| 2026-05-08 05:54 | 44.23391 | 5.41695 | 29156 ft | 375 kts | 147° |
| 2026-05-08 05:54 | 44.21312 | 5.43955 | 28724 ft | 373 kts | 147° |
| 2026-05-08 05:55 | 44.19292 | 5.46151 | 28317 ft | 372 kts | 147° |
| 2026-05-08 05:55 | 44.17250 | 5.48365 | 27893 ft | 371 kts | 147° |
| 2026-05-08 05:55 | 44.15203 | 5.50580 | 27462 ft | 370 kts | 146° |
| 2026-05-08 05:55 | 44.13163 | 5.52786 | 27048 ft | 370 kts | 146° |
| 2026-05-08 05:56 | 44.11139 | 5.54978 | 26633 ft | 369 kts | 146° |
| 2026-05-08 05:56 | 44.09141 | 5.57147 | 26212 ft | 368 kts | 146° |
| 2026-05-08 05:56 | 44.07117 | 5.59339 | 25787 ft | 368 kts | 146° |
| 2026-05-08 05:56 | 44.05095 | 5.61518 | 25357 ft | 367 kts | 146° |
| 2026-05-08 05:57 | 44.03073 | 5.63695 | 24947 ft | 366 kts | 145° |
| 2026-05-08 05:57 | 44.01063 | 5.65857 | 24532 ft | 366 kts | 146° |
| 2026-05-08 05:57 | 43.99048 | 5.68023 | 24121 ft | 365 kts | 145° |
| 2026-05-08 05:57 | 43.97038 | 5.70185 | 23717 ft | 365 kts | 145° |
| 2026-05-08 05:58 | 43.95029 | 5.72344 | 23294 ft | 364 kts | 145° |
| 2026-05-08 05:58 | 43.93024 | 5.74492 | 22875 ft | 361 kts | 144° |
| 2026-05-08 05:58 | 43.91039 | 5.76615 | 22467 ft | 359 kts | 145° |
| 2026-05-08 05:58 | 43.89070 | 5.78721 | 22066 ft | 357 kts | 144° |
| 2026-05-08 05:59 | 43.87131 | 5.80803 | 21669 ft | 356 kts | 144° |
| 2026-05-08 05:59 | 43.85178 | 5.82902 | 21260 ft | 353 kts | 144° |
| 2026-05-08 05:59 | 43.83240 | 5.84981 | 20865 ft | 350 kts | 144° |
| 2026-05-08 05:59 | 43.81319 | 5.87035 | 20468 ft | 348 kts | 144° |
| 2026-05-08 06:00 | 43.79412 | 5.89068 | 20080 ft | 345 kts | 144° |
| 2026-05-08 06:00 | 43.77509 | 5.91090 | 19694 ft | 342 kts | 144° |
| 2026-05-08 06:00 | 43.75627 | 5.93090 | 19307 ft | 340 kts | 144° |
| 2026-05-08 06:00 | 43.73756 | 5.95083 | 18926 ft | 338 kts | 144° |
| 2026-05-08 06:01 | 43.71905 | 5.97057 | 18536 ft | 335 kts | 144° |
| 2026-05-08 06:01 | 43.70057 | 5.99025 | 18160 ft | 334 kts | 144° |
| 2026-05-08 06:01 | 43.68227 | 6.00969 | 17796 ft | 331 kts | 144° |
| 2026-05-08 06:01 | 43.66407 | 6.02898 | 17410 ft | 329 kts | 144° |
| 2026-05-08 06:02 | 43.64595 | 6.04818 | 17038 ft | 327 kts | 144° |
| 2026-05-08 06:02 | 43.62813 | 6.06703 | 16677 ft | 325 kts | 144° |
| 2026-05-08 06:02 | 43.61044 | 6.08633 | 16305 ft | 324 kts | 139° |
| 2026-05-08 06:02 | 43.59578 | 6.10995 | 15931 ft | 325 kts | 124° |
| 2026-05-08 06:03 | 43.58572 | 6.13773 | 15579 ft | 324 kts | 112° |
| 2026-05-08 06:03 | 43.57782 | 6.16672 | 15232 ft | 322 kts | 112° |
| 2026-05-08 06:03 | 43.56990 | 6.19557 | 14883 ft | 321 kts | 111° |
| 2026-05-08 06:03 | 43.56202 | 6.22423 | 14539 ft | 319 kts | 111° |
| 2026-05-08 06:04 | 43.55420 | 6.25269 | 14203 ft | 317 kts | 111° |
| 2026-05-08 06:04 | 43.54637 | 6.28099 | 13865 ft | 315 kts | 112° |
| 2026-05-08 06:04 | 43.53859 | 6.30901 | 13532 ft | 313 kts | 111° |
| 2026-05-08 06:04 | 43.53084 | 6.33692 | 13194 ft | 310 kts | 111° |
| 2026-05-08 06:05 | 43.52317 | 6.36461 | 12856 ft | 308 kts | 111° |
| 2026-05-08 06:05 | 43.51811 | 6.38289 | 12636 ft | 307 kts | 111° |
| 2026-05-08 06:05 | 43.51055 | 6.41020 | 12305 ft | 304 kts | 111° |
| 2026-05-08 06:05 | 43.50110 | 6.43610 | 11976 ft | 301 kts | 124° |
| 2026-05-08 06:06 | 43.48768 | 6.45801 | 11644 ft | 299 kts | 134° |
| 2026-05-08 06:06 | 43.47326 | 6.47867 | 11263 ft | 298 kts | 134° |
| 2026-05-08 06:06 | 43.45886 | 6.49940 | 10876 ft | 298 kts | 134° |
| 2026-05-08 06:06 | 43.44463 | 6.51985 | 10426 ft | 295 kts | 134° |
| 2026-05-08 06:07 | 43.43050 | 6.54012 | 9971 ft | 290 kts | 134° |
| 2026-05-08 06:07 | 43.41660 | 6.56013 | 9585 ft | 289 kts | 133° |
| 2026-05-08 06:07 | 43.40268 | 6.58017 | 9200 ft | 288 kts | 133° |
| 2026-05-08 06:07 | 43.38886 | 6.60005 | 8805 ft | 287 kts | 133° |
| 2026-05-08 06:08 | 43.37545 | 6.62024 | 8438 ft | 285 kts | 125° |
| 2026-05-08 06:08 | 43.36866 | 6.64545 | 8080 ft | 283 kts | 92° |
| 2026-05-08 06:08 | 43.37134 | 6.67195 | 7745 ft | 281 kts | 73° |
| 2026-05-08 06:08 | 43.37806 | 6.69709 | 7398 ft | 280 kts | 66° |
| 2026-05-08 06:09 | 43.38597 | 6.72147 | 7043 ft | 278 kts | 65° |
| 2026-05-08 06:09 | 43.39385 | 6.74568 | 6693 ft | 277 kts | 66° |
| 2026-05-08 06:09 | 43.40130 | 6.77006 | 6336 ft | 276 kts | 68° |
| 2026-05-08 06:09 | 43.40814 | 6.79408 | 6119 ft | 268 kts | 69° |
| 2026-05-08 06:10 | 43.41446 | 6.81754 | 5989 ft | 256 kts | 70° |
| 2026-05-08 06:10 | 43.42031 | 6.84008 | 5839 ft | 245 kts | 70° |
| 2026-05-08 06:10 | 43.42595 | 6.86213 | 5420 ft | 240 kts | 70° |
| 2026-05-08 06:10 | 43.43132 | 6.88330 | 5264 ft | 229 kts | 70° |
| 2026-05-08 06:11 | 43.43659 | 6.90352 | 5144 ft | 219 kts | 65° |
| 2026-05-08 06:11 | 43.44504 | 6.92058 | 5042 ft | 216 kts | 45° |
| 2026-05-08 06:11 | 43.45569 | 6.93523 | 4962 ft | 216 kts | 44° |
| 2026-05-08 06:11 | 43.46623 | 6.94984 | 4866 ft | 215 kts | 44° |
| 2026-05-08 06:12 | 43.47678 | 6.96442 | 4740 ft | 216 kts | 44° |
| 2026-05-08 06:12 | 43.48736 | 6.97897 | 4504 ft | 215 kts | 44° |
| 2026-05-08 06:12 | 43.49800 | 6.99349 | 4230 ft | 215 kts | 44° |
| 2026-05-08 06:12 | 43.50868 | 7.00803 | 3937 ft | 216 kts | 44° |
| 2026-05-08 06:13 | 43.51937 | 7.02266 | 3664 ft | 216 kts | 44° |
| 2026-05-08 06:13 | 43.53004 | 7.03724 | 3369 ft | 217 kts | 44° |
| 2026-05-08 06:13 | 43.54065 | 7.05171 | 3084 ft | 210 kts | 44° |
| 2026-05-08 06:13 | 43.55088 | 7.06568 | 2790 ft | 204 kts | 44° |
| 2026-05-08 06:14 | 43.56069 | 7.07909 | 2556 ft | 195 kts | 44° |
| 2026-05-08 06:14 | 43.57008 | 7.09196 | 2295 ft | 185 kts | 44° |
| 2026-05-08 06:14 | 43.57887 | 7.10397 | 2052 ft | 171 kts | 42° |
| 2026-05-08 06:14 | 43.58707 | 7.11523 | 1824 ft | 161 kts | 42° |
| 2026-05-08 06:15 | 43.59479 | 7.12581 | 1621 ft | 152 kts | 42° |
| 2026-05-08 06:15 | 43.60203 | 7.13575 | 1426 ft | 144 kts | 41° |
| 2026-05-08 06:15 | 43.60904 | 7.14534 | 1241 ft | 141 kts | 40° |
| 2026-05-08 06:15 | 43.61600 | 7.15489 | 1054 ft | 141 kts | 41° |
| 2026-05-08 06:16 | 43.62294 | 7.16440 | 850 ft | 141 kts | 41° |
| 2026-05-08 06:16 | 43.62987 | 7.17390 | 676 ft | 140 kts | 41° |
| 2026-05-08 06:16 | 43.63677 | 7.18340 | 488 ft | 140 kts | 41° |
| 2026-05-08 06:16 | 43.64367 | 7.19288 | 292 ft | 140 kts | 42° |
| 2026-05-08 06:17 | 43.65726 | 7.21145 | 24 ft | 123 kts | 45° |
| 2026-05-08 06:17 | 43.66151 | 7.21735 | 23 ft | 56 kts | 44° |
| 2026-05-08 06:17 | 43.66367 | 7.21983 | 23 ft | 34 kts | 24° |
| 2026-05-08 06:18 | 43.66490 | 7.22049 | 21 ft | 12 kts | 20° |
| 2026-05-08 06:18 | 43.66554 | 7.21999 | 21 ft | 13 kts | 274° |
| 2026-05-08 06:18 | 43.66504 | 7.21903 | 22 ft | 12 kts | 224° |
| 2026-05-08 06:18 | 43.66450 | 7.21829 | 21 ft | 10 kts | 225° |
| 2026-05-08 06:19 | 43.66403 | 7.21764 | 21 ft | 9 kts | 225° |
| 2026-05-08 06:19 | 43.66345 | 7.21683 | 21 ft | 15 kts | 225° |
| 2026-05-08 06:19 | 43.66261 | 7.21567 | 21 ft | 19 kts | 224° |
| 2026-05-08 06:19 | 43.66162 | 7.21433 | 21 ft | 21 kts | 225° |
| 2026-05-08 06:20 | 43.66054 | 7.21284 | 22 ft | 23 kts | 225° |
| 2026-05-08 06:20 | 43.65937 | 7.21123 | 21 ft | 24 kts | 225° |
| 2026-05-08 06:20 | 43.65817 | 7.20958 | 21 ft | 25 kts | 225° |
| 2026-05-08 06:20 | 43.65708 | 7.20809 | 21 ft | 21 kts | 224° |
| 2026-05-08 06:21 | 43.65635 | 7.20703 | 22 ft | 10 kts | 240° |
| 2026-05-08 06:21 | 43.65665 | 7.20618 | 22 ft | 9 kts | 316° |
| 2026-05-08 06:21 | 43.65672 | 7.20610 | 21 ft | 0 kts | 317° |
| 2026-05-08 06:22 | 43.65672 | 7.20609 | 21 ft | 1 kts | 317° |
| 2026-05-08 06:22 | 43.65707 | 7.20585 | 21 ft | 9 kts | 354° |
| 2026-05-08 06:22 | 43.65751 | 7.20612 | 21 ft | 5 kts | 9° |
| 2026-05-08 06:23 | 43.65782 | 7.20578 | 22 ft | 7 kts | 314° |
| 2026-05-08 06:23 | 43.65807 | 7.20543 | 22 ft | 1 kts | 315° |
| 2026-05-08 06:23 | 43.65814 | 7.20533 | 21 ft | 2 kts | 315° |
| 2026-05-08 06:23 | 43.65815 | 7.20532 | 21 ft | 0 kts | 315° |